Auch-Lamothe Airport

LFDH · Gers, Occitanie, França

História da METAR LFDH · Auch-Lamothe Airport

Abaixo você vê METARs dos últimos dias. Selecione um ano para navegar pelos METARs mais antigos, a partir do ano 2007.

8 de dezembro de 2022

Hora Código Clima Temp. Visibilidade Tecto Vento METAR/SPECI
00:00
M
1 °C 6 km - 110° 110° 2 kt METAR LFBA 072300Z AUTO 11002KT 6000 NSC 01/01 Q1011

7 de dezembro de 2022

Hora Código Clima Temp. Visibilidade Tecto Vento METAR/SPECI
23:30
M
1 °C 6 km - 100° 100° 2 kt METAR LFBA 072230Z AUTO 10002KT 6000 NSC 01/01 Q1011
23:00
M
2 °C 7 km - Var 000° 0 kt METAR LFBA 072200Z AUTO 00000KT 7000 NSC 02/01 Q1012
22:30
M
1 °C 7 km - 350° 350° 1 kt METAR LFBA 072130Z AUTO 35001KT 7000 NSC 01/01 Q1012 NOSIG
22:00
M
2 °C 7 km - Var 000° 0 kt METAR LFBA 072100Z AUTO 00000KT 7000 NSC 02/01 Q1012 NOSIG
21:30
V
2 °C 8 km - Var 000° 0 kt METAR LFBA 072030Z AUTO 00000KT 8000 NSC 02/01 Q1012 NOSIG
21:00
M
2 °C 7 km - 260° 260° 1 kt METAR LFBA 072000Z AUTO 26001KT 7000 NSC 02/01 Q1012 NOSIG
20:30
V
3 °C 9 km - 270° 270° 2 kt METAR LFBA 071930Z AUTO 27002KT 9000 NSC 03/02 Q1013 NOSIG
20:00
V
3 °C 8 km - 270° 270° 2 kt METAR LFBA 071900Z AUTO 27002KT 8000 NSC 03/02 Q1013 NOSIG
19:30
V
3 °C 9 km - 260° 260° 2 kt METAR LFBA 071830Z AUTO 26002KT 9000 NSC 03/02 Q1013 NOSIG
19:00
V
4 °C 10 km+ - 260° 260° 2 kt METAR LFBA 071800Z AUTO 26002KT CAVOK 04/03 Q1013 NOSIG
18:30
V
5 °C 10 km+ - 270° 270° 4 kt METAR LFBA 071730Z AUTO 27004KT 230V310 CAVOK 05/03 Q1013 NOSIG
18:00
V
6 °C 10 km+ - 280° 280° 4 kt METAR LFBA 071700Z AUTO 28004KT CAVOK 06/03 Q1013 NOSIG
17:30
V
7 °C 10 km+ - 280° 280° 3 kt METAR LFBA 071630Z AUTO 28003KT CAVOK 07/04 Q1013 NOSIG
17:00
V
7 °C 10 km+ - 310° 310° 4 kt METAR LFBA 071600Z AUTO 31004KT CAVOK 07/04 Q1013 NOSIG
16:30
V
9 °C 10 km+ - 320° 320° 5 kt METAR LFBA 071530Z AUTO 32005KT CAVOK 09/04 Q1013 NOSIG
16:00
V
10 °C 10 km+ - 300° 300° 5 kt METAR LFBA 071500Z AUTO 30005KT CAVOK 10/05 Q1013 NOSIG
15:30
V
11 °C 10 km+ - 310° 310° 4 kt METAR LFBA 071430Z AUTO 31004KT 280V350 CAVOK 11/04 Q1013 NOSIG
15:00
V
11 °C 10 km+ - 310° 310° 4 kt METAR LFBA 071400Z AUTO 31004KT 280V350 CAVOK 11/05 Q1013 NOSIG
14:30
V
11 °C 10 km+ - 310° 310° 4 kt METAR LFBA 071330Z AUTO 31004KT 280V350 CAVOK 11/05 Q1014 NOSIG
14:00
V
11 °C 10 km+ - 290° 290° 5 kt METAR LFBA 071300Z AUTO 29005KT 260V320 CAVOK 11/05 Q1014 NOSIG
13:30
V
10 °C 10 km+ - 310° 310° 3 kt METAR LFBA 071230Z AUTO 31003KT 270V360 CAVOK 10/04 Q1014 NOSIG
13:00
V
10 °C 10 km+ - 310° 310° 4 kt METAR LFBA 071200Z AUTO 31004KT 270V350 CAVOK 10/04 Q1015 NOSIG
12:30
V
9 °C 10 km+ - 340° 340° 5 kt METAR LFBA 071130Z AUTO 34005KT CAVOK 09/05 Q1015 NOSIG
12:00
V
9 °C 10 km+ - Var Var 3 kt METAR LFBA 071100Z AUTO VRB03KT CAVOK 09/05 Q1015 NOSIG
11:30
V
8 °C 10 km+ - Var Var 3 kt METAR LFBA 071030Z AUTO VRB03KT CAVOK 08/05 Q1016 NOSIG
11:00
V
6 °C 10 km+ - 330° 330° 6 kt METAR LFBA 071000Z AUTO 33006KT CAVOK 06/04 Q1016 NOSIG
10:30
V
6 °C 10 km+ - 310° 310° 5 kt METAR LFBA 070930Z AUTO 31005KT CAVOK 06/04 Q1016 NOSIG
10:00
V
6 °C 10 km+ - Var Var 3 kt METAR LFBA 070900Z AUTO VRB03KT CAVOK 06/04 Q1016 NOSIG
09:30
V
5 °C 10 km+ - Var Var 2 kt METAR LFBA 070830Z AUTO VRB02KT CAVOK 05/04 Q1016 NOSIG
09:00
V
4 °C 10 km+ - 290° 290° 3 kt METAR LFBA 070800Z AUTO 29003KT 9999 -RA NSC 04/03 Q1016 NOSIG
08:30
V
5 °C 10 km+ - 290° 290° 5 kt METAR LFBA 070730Z AUTO 29005KT 9999 -RA NSC 05/03 Q1016 NOSIG
08:00
V
6 °C 10 km+ - 300° 300° 5 kt METAR LFBA 070700Z AUTO 30005KT CAVOK 06/05 Q1016 NOSIG
07:30
V
6 °C 10 km+ - 290° 290° 4 kt METAR LFBA 070630Z AUTO 29004KT CAVOK 06/05 Q1016 NOSIG
07:00
V
6 °C 10 km+ - 300° 300° 4 kt METAR LFBA 070600Z AUTO 30004KT CAVOK 06/05 Q1015 NOSIG
06:30
V
6 °C 10 km+ - 290° 290° 3 kt METAR LFBA 070530Z AUTO 29003KT CAVOK 06/05 Q1015
06:00
V
7 °C 10 km+ 7.400 ft 290° 290° 3 kt METAR LFBA 070500Z AUTO 29003KT 9999 FEW048 OVC074 07/06 Q1016
05:30
V
7 °C 10 km+ 7.400 ft 300° 300° 3 kt METAR LFBA 070430Z AUTO 30003KT 9999 FEW049 OVC074 07/06 Q1016
05:00
V
7 °C 10 km+ 7.200 ft Var Var 2 kt METAR LFBA 070400Z AUTO VRB02KT 9999 FEW048 OVC072 07/06 Q1016
04:30
V
7 °C 10 km+ - 300° 300° 2 kt METAR LFBA 070330Z AUTO 30002KT CAVOK 07/06 Q1016
04:00
V
7 °C 10 km+ - 280° 280° 2 kt METAR LFBA 070300Z AUTO 28002KT CAVOK 07/06 Q1016
03:30
V
7 °C 9 km - 290° 290° 2 kt METAR LFBA 070230Z AUTO 29002KT 9000 NSC 07/07 Q1016
03:00
V
7 °C 10 km+ - Var Var 1 kt METAR LFBA 070200Z AUTO VRB01KT CAVOK 07/06 Q1016
02:30
V
8 °C 10 km+ - Var 000° 0 kt METAR LFBA 070130Z AUTO 00000KT CAVOK 08/06 Q1016
02:00
V
8 °C 10 km+ - Var 000° 0 kt METAR LFBA 070100Z AUTO 00000KT CAVOK 08/07 Q1016
01:30
V
8 °C 10 km+ - 230° 230° 3 kt METAR LFBA 070030Z AUTO 23003KT CAVOK 08/07 Q1016
01:00
V
7 °C 10 km+ - Var 000° 0 kt METAR LFBA 070000Z AUTO 00000KT CAVOK 07/06 Q1016
00:30
V
8 °C 10 km+ 7.400 ft 260° 260° 1 kt METAR LFBA 062330Z AUTO 26001KT 9999 FEW049 OVC074 08/06 Q1017
00:00
V
8 °C 10 km+ - Var Var 1 kt METAR LFBA 062300Z AUTO VRB01KT CAVOK 08/06 Q1017

6 de dezembro de 2022

Hora Código Clima Temp. Visibilidade Tecto Vento METAR/SPECI
23:30
V
8 °C 10 km+ - Var Var 1 kt METAR LFBA 062230Z AUTO VRB01KT CAVOK 08/07 Q1017
23:00
V
8 °C 10 km+ - 210° 210° 3 kt METAR LFBA 062200Z AUTO 21003KT 9999 -RA NSC 08/07 Q1017
22:30
V
8 °C 10 km+ - 310° 310° 2 kt METAR LFBA 062130Z AUTO 31002KT CAVOK 08/07 Q1016
22:00
V
8 °C 10 km+ - 240° 240° 2 kt METAR LFBA 062100Z AUTO 24002KT CAVOK 08/06 Q1016 NOSIG
21:30
V
8 °C 10 km+ - 090° 090° 1 kt METAR LFBA 062030Z AUTO 09001KT CAVOK 08/06 Q1016 NOSIG
21:00
V
8 °C 10 km+ - Var 000° 0 kt METAR LFBA 062000Z AUTO 00000KT CAVOK 08/06 Q1016 NOSIG
20:30
V
9 °C 10 km+ - Var Var 3 kt METAR LFBA 061930Z AUTO VRB03KT CAVOK 09/06 Q1016 NOSIG
20:00
V
8 °C 10 km+ - 350° 350° 2 kt METAR LFBA 061900Z AUTO 35002KT CAVOK 08/06 Q1016 NOSIG
19:30
V
9 °C 10 km+ - 340° 340° 1 kt METAR LFBA 061830Z AUTO 34001KT CAVOK 09/06 Q1016 NOSIG
19:00
V
9 °C 10 km+ - 190° 190° 3 kt METAR LFBA 061800Z AUTO 19003KT 9999 ///TCU 09/05 Q1016 TEMPO BKN045
18:30
V
10 °C 10 km+ - Var Var 3 kt METAR LFBA 061730Z AUTO VRB03KT CAVOK 10/05 Q1016 NOSIG
18:00
V
10 °C 10 km+ 7.000 ft Var 000° 0 kt METAR LFBA 061700Z AUTO 00000KT 9999 FEW040/// OVC070/// ///TCU 10/05 Q1016 BECMG NSC
17:30
V
10 °C 10 km+ - 070° 070° 2 kt METAR LFBA 061630Z AUTO 07002KT CAVOK 10/05 Q1016 NOSIG
17:00
V
11 °C 10 km+ - Var Var 2 kt METAR LFBA 061600Z AUTO VRB02KT CAVOK 11/05 Q1016 NOSIG
16:30
V
11 °C 10 km+ - 310° 310° 1 kt METAR LFBA 061530Z AUTO 31001KT CAVOK 11/05 Q1015 NOSIG
16:00
V
11 °C 10 km+ - Var Var 1 kt METAR LFBA 061500Z AUTO VRB01KT CAVOK 11/04 Q1015 NOSIG
15:30
V
11 °C 10 km+ - Var 000° 0 kt METAR LFBA 061430Z AUTO 00000KT CAVOK 11/04 Q1015 NOSIG
15:00
V
10 °C 10 km+ - Var Var 2 kt METAR LFBA 061400Z AUTO VRB02KT CAVOK 10/03 Q1015 NOSIG
14:30
V
10 °C 10 km+ - 110° 110° 3 kt METAR LFBA 061330Z AUTO 11003KT CAVOK 10/03 Q1015 NOSIG
14:00
V
10 °C 10 km+ - 110° 110° 3 kt METAR LFBA 061300Z AUTO 11003KT 070V140 CAVOK 10/03 Q1016 NOSIG
13:30
V
10 °C 10 km+ - 130° 130° 4 kt METAR LFBA 061230Z AUTO 13004KT 090V150 CAVOK 10/02 Q1016 NOSIG
13:00
V
9 °C 10 km+ - 100° 100° 4 kt METAR LFBA 061200Z AUTO 10004KT 060V130 CAVOK 09/03 Q1016 NOSIG
12:30
V
8 °C 10 km+ - 130° 130° 5 kt METAR LFBA 061130Z AUTO 13005KT CAVOK 08/02 Q1016 NOSIG
12:00
V
8 °C 10 km+ - 110° 110° 4 kt METAR LFBA 061100Z AUTO 11004KT CAVOK 08/03 Q1016 NOSIG
11:30
V
7 °C 10 km+ - 110° 110° 4 kt METAR LFBA 061030Z AUTO 11004KT CAVOK 07/03 Q1017 NOSIG
11:00
V
7 °C 10 km+ - 110° 110° 4 kt METAR LFBA 061000Z AUTO 11004KT 9999 ///TCU 07/03 Q1017 BECMG NSC
10:30
V
6 °C 10 km+ - 120° 120° 1 kt METAR LFBA 060930Z AUTO 12001KT 9999 //////TCU 06/03 Q1017 BECMG NSC
10:00
V
6 °C 10 km+ - Var 000° 0 kt METAR LFBA 060900Z AUTO 00000KT 9999 //////TCU 06/03 Q1017 BECMG NSC
09:30
V
5 °C 10 km+ - 110° 110° 4 kt METAR LFBA 060830Z AUTO 11004KT 080V140 CAVOK 05/03 Q1016 NOSIG
09:00
V
4 °C 10 km+ - 120° 120° 4 kt METAR LFBA 060800Z AUTO 12004KT CAVOK 04/03 Q1016 NOSIG
08:30
V
4 °C 10 km+ - 110° 110° 4 kt METAR LFBA 060730Z AUTO 11004KT CAVOK 04/02 Q1016 NOSIG
08:00
V
4 °C 10 km+ - 120° 120° 3 kt METAR LFBA 060700Z AUTO 12003KT CAVOK 04/02 Q1016 NOSIG
07:30
V
4 °C 10 km+ - 110° 110° 4 kt METAR LFBA 060630Z AUTO 11004KT CAVOK 04/03 Q1016 NOSIG
07:00
V
4 °C 10 km+ - 110° 110° 6 kt METAR LFBA 060600Z AUTO 11006KT CAVOK 04/03 Q1015
06:30
V
4 °C 10 km+ - 130° 130° 5 kt METAR LFBA 060530Z AUTO 13005KT CAVOK 04/03 Q1015
06:00
V
4 °C 10 km+ - 110° 110° 5 kt METAR LFBA 060500Z AUTO 11005KT CAVOK 04/03 Q1015
05:30
V
4 °C 10 km+ - 110° 110° 4 kt METAR LFBA 060430Z AUTO 11004KT CAVOK 04/03 Q1015
05:00
V
5 °C 10 km+ - 120° 120° 5 kt METAR LFBA 060400Z AUTO 12005KT CAVOK 05/03 Q1015
04:30
V
5 °C 10 km+ - 120° 120° 4 kt METAR LFBA 060330Z AUTO 12004KT CAVOK 05/03 Q1015
04:00
V
5 °C 10 km+ - 120° 120° 5 kt METAR LFBA 060300Z AUTO 12005KT CAVOK 05/03 Q1016
03:30
V
5 °C 10 km+ - 120° 120° 4 kt METAR LFBA 060230Z AUTO 12004KT CAVOK 05/03 Q1016
03:00
V
5 °C 10 km+ - 100° 100° 4 kt METAR LFBA 060200Z AUTO 10004KT CAVOK 05/03 Q1016
02:30
V
6 °C 10 km+ - 120° 120° 4 kt METAR LFBA 060130Z AUTO 12004KT CAVOK 06/03 Q1016
02:00
V
5 °C 10 km+ - 110° 110° 4 kt METAR LFBA 060100Z AUTO 11004KT CAVOK 05/04 Q1016
01:30
V
5 °C 10 km+ - 110° 110° 4 kt METAR LFBA 060030Z AUTO 11004KT CAVOK 05/04 Q1016
01:00
V
5 °C 10 km+ - 120° 120° 3 kt METAR LFBA 060000Z AUTO 12003KT CAVOK 05/04 Q1016
00:30
V
6 °C 10 km+ - 110° 110° 4 kt METAR LFBA 052330Z AUTO 11004KT CAVOK 06/04 Q1016
00:00
V
5 °C 10 km+ - 110° 110° 3 kt METAR LFBA 052300Z AUTO 11003KT CAVOK 05/04 Q1016

5 de dezembro de 2022

Hora Código Clima Temp. Visibilidade Tecto Vento METAR/SPECI
23:30
V
5 °C 10 km+ - 110° 110° 3 kt METAR LFBA 052230Z AUTO 11003KT CAVOK 05/04 Q1016
23:00
V
5 °C 10 km+ - 110° 110° 3 kt METAR LFBA 052200Z AUTO 11003KT CAVOK 05/03 Q1016
22:30
V
5 °C 10 km+ - 090° 090° 3 kt METAR LFBA 052130Z AUTO 09003KT CAVOK 05/04 Q1016
22:00
V
5 °C 10 km+ - 110° 110° 3 kt METAR LFBA 052100Z AUTO 11003KT CAVOK 05/04 Q1016 NOSIG
21:30
V
5 °C 10 km+ - 100° 100° 3 kt METAR LFBA 052030Z AUTO 10003KT CAVOK 05/04 Q1016 NOSIG
21:00
V
4 °C 10 km+ - 080° 080° 3 kt METAR LFBA 052000Z AUTO 08003KT CAVOK 04/02 Q1016 NOSIG
20:30
V
4 °C 10 km+ - 120° 120° 3 kt METAR LFBA 051930Z AUTO 12003KT CAVOK 04/04 Q1016 NOSIG
20:00
V
4 °C 10 km+ - 110° 110° 1 kt METAR LFBA 051900Z AUTO 11001KT CAVOK 04/04 Q1016 NOSIG
19:30
V
4 °C 10 km+ - 220° 220° 2 kt METAR LFBA 051830Z AUTO 22002KT CAVOK 04/04 Q1016 NOSIG
19:00
V
4 °C 10 km+ - Var 000° 0 kt METAR LFBA 051800Z AUTO 00000KT CAVOK 04/04 Q1016 NOSIG
18:30
V
5 °C 10 km+ - Var 000° 0 kt METAR LFBA 051730Z AUTO 00000KT CAVOK 05/03 Q1016 NOSIG
18:00
V
6 °C 10 km+ - Var 000° 0 kt METAR LFBA 051700Z AUTO 00000KT CAVOK 06/04 Q1016 NOSIG
17:30
V
7 °C 10 km+ - 130° 130° 3 kt METAR LFBA 051630Z AUTO 13003KT CAVOK 07/04 Q1016 NOSIG
17:00
V
8 °C 10 km+ - 100° 100° 2 kt METAR LFBA 051600Z AUTO 10002KT CAVOK 08/04 Q1016 NOSIG
16:30
V
9 °C 10 km+ - 130° 130° 4 kt METAR LFBA 051530Z AUTO 13004KT CAVOK 09/05 Q1016 NOSIG
16:00
V
8 °C 10 km+ - 110° 110° 5 kt METAR LFBA 051500Z AUTO 11005KT CAVOK 08/04 Q1016 NOSIG
15:30
V
10 °C 10 km+ - 120° 120° 5 kt METAR LFBA 051430Z AUTO 12005KT CAVOK 10/04 Q1016 NOSIG
15:00
V
10 °C 10 km+ - 130° 130° 5 kt METAR LFBA 051400Z AUTO 13005KT 100V180 CAVOK 10/04 Q1016 NOSIG
14:30
V
9 °C 10 km+ - 120° 120° 5 kt METAR LFBA 051330Z AUTO 12005KT 070V150 CAVOK 09/04 Q1016 NOSIG
14:00
V
9 °C 10 km+ - 120° 120° 5 kt METAR LFBA 051300Z AUTO 12005KT 090V150 CAVOK 09/04 Q1017 NOSIG
13:30
V
8 °C 10 km+ - 120° 120° 6 kt METAR LFBA 051230Z AUTO 12006KT 090V150 CAVOK 08/04 Q1017 NOSIG
13:00
V
7 °C 10 km+ - 120° 120° 6 kt METAR LFBA 051200Z AUTO 12006KT CAVOK 07/04 Q1017 NOSIG
12:30
V
6 °C 9 km - 120° 120° 7 kt METAR LFBA 051130Z AUTO 12007KT 9000 NSC 06/04 Q1018 NOSIG
12:00
V
5 °C 8 km - 110° 110° 10 kt METAR LFBA 051100Z AUTO 11010KT 8000 NSC 05/03 Q1018 NOSIG
11:30
M
4 °C 7 km - 120° 120° 9 kt METAR LFBA 051030Z AUTO 12009KT 7000 FEW004 04/03 Q1018 NOSIG
11:00
L
2 °C 5 km 300 ft 100° 100° 9 kt METAR LFBA 051000Z AUTO 10009KT 5000 BR BKN003 02/02 Q1019 BECMG NSC

Nós e terceiros acompanhamos seu comportamento na internet em nosso site com cookies. Se você continuar, nós assumimos que você concorda com nosso política de cookies.